Time;durP1;ratioP1;P1;durP2;ratioP2;P2;SDS_P1;SDS_P2;PMS_P1;PMS_P2;Temp;Humidity;BMP_temperature;BMP_pressure;BME280_temperature;BME280_humidity;BME280_pressure;Samples;Min_cycle;Max_cycle;Signal;HPM_P1;HPM_P2
2022/04/23 00:00:50;;;;;;;5.50;4.20;;;;;;;9.52;77.09;100208.16;105032;1277;71400;-70
2022/04/23 00:03:18;;;;;;;6.40;4.80;;;;;;;9.44;77.20;100201.54;104895;1277;72844;-73
2022/04/23 00:05:45;;;;;;;6.20;4.00;;;;;;;9.37;77.18;100207.91;104974;1277;62868;-69
2022/04/23 00:08:12;;;;;;;4.40;3.40;;;;;;;9.31;76.90;100206.31;105177;1274;61196;-71
2022/04/23 00:10:38;;;;;;;6.60;4.40;;;;;;;9.26;76.85;100206.58;104948;1274;61289;-70
2022/04/23 00:13:05;;;;;;;5.30;3.70;;;;;;;9.20;76.82;100205.54;104942;1276;61378;-70
2022/04/23 00:15:37;;;;;;;5.80;3.70;;;;;;;9.13;76.76;100204.20;104725;1276;73929;-71
2022/04/23 00:18:08;;;;;;;4.20;3.60;;;;;;;9.08;76.56;100209.73;105199;1274;61987;-72
2022/04/23 00:20:37;;;;;;;4.80;3.60;;;;;;;9.03;76.35;100207.70;105037;1277;62041;-73
2022/04/23 00:23:05;;;;;;;5.40;3.50;;;;;;;8.98;76.58;100212.33;104958;1274;76047;-73
2022/04/23 00:25:34;;;;;;;4.10;3.50;;;;;;;8.92;76.50;100210.60;105107;1274;70408;-71
2022/04/23 00:28:01;;;;;;;5.10;3.40;;;;;;;8.88;76.27;100213.13;105278;1274;72943;-72
2022/04/23 00:30:28;;;;;;;3.40;2.70;;;;;;;8.82;76.34;100215.67;104922;1277;63620;-71
2022/04/23 00:32:59;;;;;;;3.40;2.50;;;;;;;8.77;76.51;100216.63;104864;1277;61308;-72
2022/04/23 00:35:26;;;;;;;5.40;3.10;;;;;;;8.71;76.72;100211.98;105151;1277;75048;-72
2022/04/23 00:37:52;;;;;;;4.60;2.90;;;;;;;8.67;76.66;100212.36;104806;1277;71499;-71
2022/04/23 00:40:20;;;;;;;5.60;3.10;;;;;;;8.61;76.63;100210.94;104827;1276;73174;-72
2022/04/23 00:42:52;;;;;;;4.20;2.90;;;;;;;8.56;76.62;100210.33;105191;1274;61723;-71
2022/04/23 00:45:26;;;;;;;3.90;2.60;;;;;;;8.52;76.59;100205.21;104917;1277;61160;-74
2022/04/23 00:47:53;;;;;;;4.10;2.80;;;;;;;8.49;76.65;100203.23;104975;1275;74952;-72
2022/04/23 00:50:21;;;;;;;4.40;2.50;;;;;;;8.46;76.67;100203.75;104829;1277;71375;-72
2022/04/23 00:52:57;;;;;;;3.50;2.70;;;;;;;8.44;76.23;100205.94;105123;1274;72678;-71
2022/04/23 00:55:25;;;;;;;4.40;2.70;;;;;;;8.39;76.36;100206.55;104917;1277;61432;-72
2022/04/23 00:57:52;;;;;;;4.00;2.90;;;;;;;8.35;76.24;100205.05;105039;1274;61653;-72
2022/04/23 01:00:18;;;;;;;3.60;2.80;;;;;;;8.31;76.39;100208.58;104962;1277;75003;-69
2022/04/23 01:02:45;;;;;;;3.80;2.70;;;;;;;8.26;76.42;100207.84;104930;1277;71399;-72
2022/04/23 01:05:12;;;;;;;4.10;2.60;;;;;;;8.22;77.09;100203.73;104888;1277;72950;-70
2022/04/23 01:07:43;;;;;;;3.80;2.30;;;;;;;8.19;77.05;100202.19;104850;1277;61295;-70
2022/04/23 01:10:11;;;;;;;3.90;2.90;;;;;;;8.14;77.05;100194.77;104959;1276;61946;-70
2022/04/23 01:12:38;;;;;;;4.50;2.90;;;;;;;8.10;77.27;100193.08;105009;1274;75037;-70
2022/04/23 01:15:07;;;;;;;4.20;3.10;;;;;;;8.07;77.30;100194.90;105033;1276;72757;-71
2022/04/23 01:17:35;;;;;;;4.20;2.80;;;;;;;8.03;77.12;100197.42;104920;1276;74132;-70
2022/04/23 01:20:07;;;;;;;4.80;3.50;;;;;;;7.97;77.52;100195.90;105160;1276;61244;-72
2022/04/23 01:22:35;;;;;;;4.30;2.90;;;;;;;7.92;77.73;100194.91;104909;1275;61760;-69
2022/04/23 01:25:06;;;;;;;4.10;3.10;;;;;;;7.89;77.94;100194.96;104980;1274;76009;-70
2022/04/23 01:27:34;;;;;;;3.20;2.50;;;;;;;7.84;78.09;100194.39;104915;1277;72636;-70
2022/04/23 01:30:01;;;;;;;4.40;3.10;;;;;;;7.81;78.47;100189.48;105426;1275;73178;-70
2022/04/23 01:32:28;;;;;;;4.50;3.60;;;;;;;7.78;78.23;100188.75;104973;1274;62349;-71
2022/04/23 01:34:54;;;;;;;4.20;2.50;;;;;;;7.75;78.31;100188.48;104895;1277;61256;-70
2022/04/23 01:37:22;;;;;;;5.50;3.20;;;;;;;7.72;78.69;100190.09;105108;1274;74884;-71
2022/04/23 01:39:48;;;;;;;3.90;3.30;;;;;;;7.70;78.74;100192.81;104948;1277;71178;-71
2022/04/23 01:42:17;;;;;;;3.60;2.80;;;;;;;7.67;78.58;100192.88;104929;1274;72913;-69
2022/04/23 01:44:48;;;;;;;5.60;3.40;;;;;;;7.64;78.28;100195.48;105114;1274;61353;-70
2022/04/23 01:47:16;;;;;;;5.60;3.70;;;;;;;7.60;78.38;100198.56;104812;1277;61244;-71
2022/04/23 01:49:44;;;;;;;5.90;3.60;;;;;;;7.58;78.48;100198.80;105060;1275;76020;-71
2022/04/23 01:52:12;;;;;;;5.10;3.70;;;;;;;7.55;78.37;100201.08;104884;1275;71390;-72
2022/04/23 01:54:39;;;;;;;7.80;3.90;;;;;;;7.50;78.28;100197.69;104874;1277;74415;-68
2022/04/23 01:57:06;;;;;;;4.30;3.40;;;;;;;7.47;78.46;100195.84;104929;1275;61314;-70
2022/04/23 01:59:33;;;;;;;6.00;3.30;;;;;;;7.42;78.32;100191.43;104846;1277;61222;-70
2022/04/23 02:02:00;;;;;;;4.50;3.40;;;;;;;7.39;78.68;100194.77;104831;1277;74914;-69
2022/04/23 02:04:27;;;;;;;5.70;4.30;;;;;;;7.36;78.60;100193.81;104978;1276;71379;-71
2022/04/23 02:06:53;;;;;;;5.50;3.40;;;;;;;7.33;78.64;100192.55;104924;1277;73688;-71
2022/04/23 02:09:20;;;;;;;4.80;3.10;;;;;;;7.30;78.49;100196.55;104840;1278;61264;-69
2022/04/23 02:11:46;;;;;;;6.20;3.80;;;;;;;7.28;78.60;100201.51;104866;1277;61240;-71
2022/04/23 02:14:13;;;;;;;4.60;3.20;;;;;;;7.26;78.47;100203.37;105381;1274;61295;-72
2022/04/23 02:16:40;;;;;;;6.20;4.40;;;;;;;7.23;78.42;100202.84;105029;1276;70128;-70
2022/04/23 02:19:07;;;;;;;4.80;3.60;;;;;;;7.19;78.30;100206.05;104995;1275;72951;-70
2022/04/23 02:21:33;;;;;;;6.60;4.20;;;;;;;7.16;78.54;100208.13;105056;1276;61250;-71
2022/04/23 02:24:03;;;;;;;5.50;4.30;;;;;;;7.13;78.60;100210.90;105084;1275;61244;-69
2022/04/23 02:26:30;;;;;;;4.80;2.60;;;;;;;7.09;78.73;100207.59;104833;1276;74914;-70
2022/04/23 02:28:57;;;;;;;5.70;4.00;;;;;;;7.07;78.70;100217.22;104930;1276;71545;-72
2022/04/23 02:31:24;;;;;;;5.20;3.40;;;;;;;7.03;78.69;100217.02;105194;1274;73026;-72
2022/04/23 02:33:51;;;;;;;6.00;3.90;;;;;;;7.00;78.72;100220.58;105002;1274;61244;-72
2022/04/23 02:36:17;;;;;;;6.60;4.60;;;;;;;6.95;78.63;100225.25;104901;1277;61263;-73
2022/04/23 02:38:44;;;;;;;6.70;4.70;;;;;;;6.90;78.73;100223.83;104813;1276;61255;-69
2022/04/23 02:41:11;;;;;;;7.80;4.60;;;;;;;6.85;78.69;100225.46;104861;1276;71362;-70
2022/04/23 02:43:41;;;;;;;8.00;3.90;;;;;;;6.80;78.91;100224.47;105087;1274;73386;-68
2022/04/23 02:46:08;;;;;;;5.20;3.60;;;;;;;6.74;78.92;100224.13;105054;1275;62552;-69
2022/04/23 02:48:38;;;;;;;6.40;4.30;;;;;;;6.70;78.92;100227.94;104887;1276;61205;-71
2022/04/23 02:51:07;;;;;;;5.70;4.80;;;;;;;6.65;78.95;100229.73;105030;1277;73897;-71
2022/04/23 02:53:34;;;;;;;6.90;4.90;;;;;;;6.60;79.19;100227.45;104888;1276;71565;-70
2022/04/23 02:56:05;;;;;;;6.90;5.10;;;;;;;6.55;79.22;100227.40;104847;1276;73111;-69
2022/04/23 02:58:32;;;;;;;6.90;4.40;;;;;;;6.50;79.34;100225.39;104954;1277;61237;-70
2022/04/23 03:00:59;;;;;;;7.20;5.00;;;;;;;6.47;79.53;100228.27;105049;1274;62059;-71
2022/04/23 03:03:26;;;;;;;5.90;4.20;;;;;;;6.43;79.55;100225.12;105054;1276;74890;-70
2022/04/23 03:05:53;;;;;;;8.10;5.50;;;;;;;6.40;79.77;100225.47;104939;1276;70391;-72
2022/04/23 03:08:21;;;;;;;6.90;4.80;;;;;;;6.35;79.72;100223.29;105076;1274;73402;-69
2022/04/23 03:10:48;;;;;;;6.20;4.70;;;;;;;6.31;80.01;100228.11;105082;1274;62505;-71
2022/04/23 03:13:15;;;;;;;7.10;5.00;;;;;;;6.27;80.20;100226.63;104986;1276;61385;-71
2022/04/23 03:15:44;;;;;;;8.70;5.40;;;;;;;6.23;80.36;100230.16;105066;1276;76022;-70
2022/04/23 03:18:13;;;;;;;7.30;4.10;;;;;;;6.19;80.74;100228.49;105165;1277;70895;-69
2022/04/23 03:20:41;;;;;;;6.80;4.20;;;;;;;6.14;80.80;100227.86;105061;1274;74142;-69
2022/04/23 03:23:08;;;;;;;6.60;5.00;;;;;;;6.09;80.86;100225.91;105209;1276;61435;-71
2022/04/23 03:25:35;;;;;;;9.00;5.50;;;;;;;6.05;80.98;100228.52;105014;1276;61245;-71
2022/04/23 03:28:02;;;;;;;7.00;4.80;;;;;;;5.99;81.00;100226.29;105042;1274;74362;-71
2022/04/23 03:30:29;;;;;;;8.20;5.80;;;;;;;5.94;81.61;100228.59;105060;1274;71388;-69
2022/04/23 03:32:58;;;;;;;8.00;4.80;;;;;;;5.89;81.63;100229.06;104842;1276;72940;-71
2022/04/23 03:35:26;;;;;;;6.70;5.10;;;;;;;5.85;82.18;100232.39;104984;1274;61320;-72
2022/04/23 03:37:55;;;;;;;9.90;6.50;;;;;;;5.81;82.15;100228.09;104960;1276;61563;-68
2022/04/23 03:40:24;;;;;;;6.70;4.40;;;;;;;5.77;82.38;100231.63;104990;1276;76304;-69
2022/04/23 03:42:50;;;;;;;5.60;4.60;;;;;;;5.74;82.62;100233.21;104896;1276;70330;-72
2022/04/23 03:45:18;;;;;;;9.10;5.10;;;;;;;5.69;82.71;100232.92;104939;1274;73955;-70
2022/04/23 03:47:47;;;;;;;8.20;5.70;;;;;;;5.66;82.93;100230.80;104928;1275;61249;-70
2022/04/23 03:50:15;;;;;;;8.30;5.70;;;;;;;5.64;83.44;100232.49;104909;1277;61121;-68
2022/04/23 03:52:42;;;;;;;7.30;5.10;;;;;;;5.61;83.95;100229.52;105033;1276;74891;-70
2022/04/23 03:55:09;;;;;;;8.80;5.60;;;;;;;5.61;84.27;100230.85;104943;1276;71217;-70
2022/04/23 03:57:56;;;;;;;8.70;6.00;;;;;;;5.59;84.28;100236.77;105012;1274;73936;-69
2022/04/23 04:00:23;;;;;;;9.40;5.40;;;;;;;5.58;84.53;100237.41;104963;1274;62095;-72
2022/04/23 04:02:50;;;;;;;7.30;5.40;;;;;;;5.57;84.54;100237.73;105034;1274;59409;-70
2022/04/23 04:05:18;;;;;;;6.90;5.30;;;;;;;5.54;84.61;100235.35;105378;1274;74712;-70
2022/04/23 04:07:46;;;;;;;6.80;4.80;;;;;;;5.52;84.74;100233.83;105021;1274;72225;-70
2022/04/23 04:10:18;;;;;;;8.30;5.70;;;;;;;5.49;84.97;100234.65;105005;1275;73364;-70
2022/04/23 04:12:45;;;;;;;7.30;4.80;;;;;;;5.47;85.15;100237.44;105000;1274;62367;-70
2022/04/23 04:15:16;;;;;;;6.30;4.60;;;;;;;5.47;85.27;100241.71;104968;1276;61436;-70
2022/04/23 04:17:44;;;;;;;6.00;4.40;;;;;;;5.46;85.30;100243.21;104897;1274;76191;-71
2022/04/23 04:20:13;;;;;;;6.40;4.90;;;;;;;5.46;85.49;100243.52;105193;1274;72407;-70
2022/04/23 04:22:44;;;;;;;7.90;5.70;;;;;;;5.46;85.69;100246.44;104945;1275;71989;-72
2022/04/23 04:25:13;;;;;;;9.00;5.70;;;;;;;5.47;85.89;100247.83;104862;1276;62480;-70
2022/04/23 04:27:40;;;;;;;8.80;5.80;;;;;;;5.48;85.85;100255.61;105098;1274;61306;-71
2022/04/23 04:30:09;;;;;;;8.50;6.40;;;;;;;5.48;85.77;100250.33;104854;1276;76039;-72
2022/04/23 04:32:36;;;;;;;9.20;5.30;;;;;;;5.49;86.17;100251.99;105079;1277;72091;-72
2022/04/23 04:35:03;;;;;;;7.90;5.90;;;;;;;5.51;86.13;100256.05;104878;1277;73997;-69
2022/04/23 04:37:29;;;;;;;9.60;6.30;;;;;;;5.53;86.60;100253.77;105016;1275;62396;-71
2022/04/23 04:39:56;;;;;;;8.10;5.60;;;;;;;5.55;86.41;100256.36;104985;1276;61331;-70
2022/04/23 04:42:22;;;;;;;7.20;5.40;;;;;;;5.57;86.25;100252.83;104878;1276;61399;-70
2022/04/23 04:44:52;;;;;;;7.20;5.30;;;;;;;5.57;86.35;100253.48;104983;1274;71408;-70
2022/04/23 04:47:19;;;;;;;9.10;5.70;;;;;;;5.58;86.54;100253.02;104899;1276;74033;-68
2022/04/23 04:49:45;;;;;;;8.60;6.00;;;;;;;5.60;86.43;100254.91;104894;1276;62615;-71
2022/04/23 04:52:12;;;;;;;9.50;6.60;;;;;;;5.64;86.62;100257.23;105047;1274;61253;-69
2022/04/23 04:54:38;;;;;;;9.20;6.80;;;;;;;5.66;86.66;100259.06;105109;1274;76019;-70
2022/04/23 04:57:06;;;;;;;8.90;6.20;;;;;;;5.71;86.43;100261.95;104916;1276;71137;-69
2022/04/23 04:59:32;;;;;;;7.60;5.20;;;;;;;5.74;86.45;100259.70;104967;1276;74034;-71
2022/04/23 05:02:00;;;;;;;8.90;6.40;;;;;;;5.78;86.39;100264.73;104957;1276;61374;-71
2022/04/23 05:04:28;;;;;;;7.70;5.60;;;;;;;5.83;86.28;100265.59;104914;1276;61269;-68
2022/04/23 05:06:57;;;;;;;9.60;6.00;;;;;;;5.89;86.22;100271.71;105027;1274;75001;-70
2022/04/23 05:09:24;;;;;;;6.90;5.50;;;;;;;5.93;86.10;100275.16;104999;1276;72471;-70
2022/04/23 05:11:50;;;;;;;10.10;7.00;;;;;;;5.98;86.12;100279.06;104907;1276;73136;-69
2022/04/23 05:14:18;;;;;;;8.20;5.70;;;;;;;6.04;85.78;100276.89;104855;1276;61289;-71
2022/04/23 05:16:44;;;;;;;10.00;6.70;;;;;;;6.10;85.65;100278.35;105049;1274;61475;-70
2022/04/23 05:19:11;;;;;;;11.50;6.10;;;;;;;6.16;85.35;100285.73;104837;1274;75144;-72
2022/04/23 05:21:38;;;;;;;7.20;4.80;;;;;;;6.22;85.30;100286.45;104860;1274;70947;-69
2022/04/23 05:24:06;;;;;;;11.50;6.80;;;;;;;6.28;85.13;100286.02;104856;1277;72727;-71
2022/04/23 05:26:35;;;;;;;8.90;5.10;;;;;;;6.36;84.79;100291.85;105024;1276;61694;-72
2022/04/23 05:29:03;;;;;;;5.90;3.80;;;;;;;6.43;84.43;100292.88;105354;1274;61381;-71
2022/04/23 05:31:32;;;;;;;7.30;5.40;;;;;;;6.51;84.25;100294.56;105063;1274;74957;-73
2022/04/23 05:34:00;;;;;;;9.50;6.30;;;;;;;6.58;84.00;100293.13;105149;1275;72723;-73
2022/04/23 05:36:26;;;;;;;8.20;5.30;;;;;;;6.66;83.89;100295.13;105356;1276;73103;-72
2022/04/23 05:38:55;;;;;;;10.80;6.60;;;;;;;6.74;83.56;100293.25;104955;1274;61452;-70
2022/04/23 05:41:23;;;;;;;8.50;5.90;;;;;;;6.82;83.13;100293.85;105339;1274;61384;-70
2022/04/23 05:43:49;;;;;;;9.40;6.00;;;;;;;6.90;82.52;100288.91;105091;1276;75189;-72
2022/04/23 05:46:17;;;;;;;9.20;6.00;;;;;;;6.98;82.36;100289.16;104905;1275;72397;-71
2022/04/23 05:48:44;;;;;;;10.80;7.20;;;;;;;7.06;82.03;100286.74;105096;1274;73970;-70
2022/04/23 05:51:11;;;;;;;10.80;6.60;;;;;;;7.14;81.76;100291.84;105061;1274;61384;-70
2022/04/23 05:53:37;;;;;;;8.40;6.10;;;;;;;7.23;81.25;100290.90;104963;1275;61205;-70
2022/04/23 05:56:07;;;;;;;9.10;6.80;;;;;;;7.31;81.03;100291.14;104884;1276;61345;-72
2022/04/23 05:58:35;;;;;;;8.80;6.20;;;;;;;7.40;80.70;100292.99;105045;1276;72400;-70
2022/04/23 06:01:06;;;;;;;7.00;5.30;;;;;;;7.48;80.32;100294.70;105189;1274;73543;-72
2022/04/23 06:03:32;;;;;;;9.60;6.20;;;;;;;7.58;79.43;100299.00;104861;1277;62355;-71
2022/04/23 06:05:59;;;;;;;8.70;5.80;;;;;;;7.68;79.67;100300.23;105105;1276;61348;-70
2022/04/23 06:08:26;;;;;;;7.70;5.30;;;;;;;7.78;79.20;100298.60;105100;1274;61378;-70
2022/04/23 06:10:52;;;;;;;8.30;5.80;;;;;;;7.87;78.63;100303.90;104970;1274;70353;-71
2022/04/23 06:13:21;;;;;;;9.20;6.80;;;;;;;7.97;77.97;100303.73;105302;1276;72930;-72
2022/04/23 06:15:48;;;;;;;10.20;6.70;;;;;;;8.07;78.42;100306.60;105428;1274;63482;-71
2022/04/23 06:18:14;;;;;;;11.10;7.00;;;;;;;8.19;77.38;100303.61;105036;1276;61374;-71
2022/04/23 06:20:41;;;;;;;10.40;7.00;;;;;;;8.30;76.64;100309.30;105085;1274;61239;-71
2022/04/23 06:23:07;;;;;;;9.60;7.30;;;;;;;8.38;75.82;100310.02;104908;1275;71579;-73
2022/04/23 06:25:34;;;;;;;9.50;7.00;;;;;;;8.45;74.94;100308.85;104974;1275;61258;-71
2022/04/23 06:28:00;;;;;;;8.40;6.50;;;;;;;8.53;74.94;100308.97;104945;1276;61296;-74
2022/04/23 06:30:27;;;;;;;9.10;6.50;;;;;;;8.62;73.86;100306.30;104853;1275;61246;-72
2022/04/23 06:32:54;;;;;;;8.60;6.40;;;;;;;8.71;73.77;100308.42;105026;1275;73618;-70
2022/04/23 06:35:21;;;;;;;8.90;6.50;;;;;;;8.81;73.52;100310.09;104900;1276;71813;-70
2022/04/23 06:37:47;;;;;;;11.20;7.10;;;;;;;8.91;72.48;100307.43;104905;1276;73093;-73
2022/04/23 06:40:14;;;;;;;7.90;5.70;;;;;;;9.00;72.19;100310.61;104880;1276;61285;-71
2022/04/23 06:42:42;;;;;;;10.60;5.30;;;;;;;9.10;71.67;100306.54;104957;1276;61223;-72
2022/04/23 06:45:09;;;;;;;8.60;5.90;;;;;;;9.19;71.33;100311.52;105058;1277;75031;-71
2022/04/23 06:47:36;;;;;;;9.60;6.10;;;;;;;9.26;69.89;100309.99;104987;1276;72404;-70
2022/04/23 06:50:04;;;;;;;7.70;5.60;;;;;;;9.34;70.27;100312.11;104775;1276;74052;-72
2022/04/23 06:52:30;;;;;;;7.30;5.60;;;;;;;9.42;70.29;100311.68;104979;1275;62258;-69
2022/04/23 06:54:58;;;;;;;12.50;6.80;;;;;;;9.51;69.74;100311.02;104976;1276;61301;-68
2022/04/23 06:57:25;;;;;;;11.80;6.70;;;;;;;9.60;69.22;100313.89;104847;1276;75073;-72
2022/04/23 06:59:52;;;;;;;9.10;5.50;;;;;;;9.68;68.98;100316.27;105023;1274;71140;-70
2022/04/23 07:02:19;;;;;;;11.00;8.70;;;;;;;9.74;67.74;100315.20;105014;1273;72577;-71
2022/04/23 07:04:46;;;;;;;8.50;6.10;;;;;;;9.79;67.01;100318.67;105238;1274;62053;-72
2022/04/23 07:07:13;;;;;;;7.70;6.30;;;;;;;9.85;66.48;100317.72;104863;1276;61253;-71
2022/04/23 07:09:40;;;;;;;9.20;5.60;;;;;;;9.90;66.69;100316.71;104872;1276;76084;-73
2022/04/23 07:12:07;;;;;;;8.80;6.30;;;;;;;9.97;66.20;100315.27;104889;1276;61395;-70
2022/04/23 07:14:34;;;;;;;8.00;5.90;;;;;;;10.09;66.56;100316.63;104866;1276;75148;-70
2022/04/23 07:17:06;;;;;;;7.40;5.50;;;;;;;10.19;65.87;100315.61;104997;1276;64629;-70
2022/04/23 07:19:38;;;;;;;7.20;4.90;;;;;;;10.26;65.30;100314.48;104871;1276;61351;-72
2022/04/23 07:22:06;;;;;;;7.40;6.10;;;;;;;10.34;65.04;100314.27;105049;1276;73889;-70
2022/04/23 07:24:33;;;;;;;8.40;6.20;;;;;;;10.44;64.84;100313.45;104907;1274;71377;-71
2022/04/23 07:27:00;;;;;;;8.00;6.10;;;;;;;10.52;63.78;100305.89;104997;1275;73020;-72
2022/04/23 07:29:28;;;;;;;8.00;6.20;;;;;;;10.61;63.60;100305.36;104881;1274;62236;-69
2022/04/23 07:31:56;;;;;;;8.00;6.20;;;;;;;10.71;63.19;100302.74;104970;1275;60474;-72
2022/04/23 07:39:56;;;;;;;7.40;5.40;;;;;;;11.04;61.75;100298.06;104906;1276;74068;-70
2022/04/23 07:42:23;;;;;;;7.90;5.40;;;;;;;11.18;61.67;100294.52;104892;1275;61345;-71
2022/04/23 07:44:49;;;;;;;8.10;5.30;;;;;;;11.27;60.32;100289.68;104862;1276;61540;-72
2022/04/23 07:47:17;;;;;;;9.10;5.40;;;;;;;11.33;58.97;100288.48;104912;1276;74918;-72
2022/04/23 07:49:43;;;;;;;6.70;5.40;;;;;;;11.39;59.48;100290.13;104907;1274;71477;-71
2022/04/23 07:52:10;;;;;;;7.50;5.70;;;;;;;11.46;58.71;100285.80;104923;1274;61295;-70
2022/04/23 07:54:42;;;;;;;8.00;5.30;;;;;;;11.53;58.80;100285.78;104967;1274;62540;-69
2022/04/23 07:57:10;;;;;;;6.30;5.40;;;;;;;11.61;58.39;100290.60;105083;1275;61780;-69
2022/04/23 07:59:43;;;;;;;7.90;5.70;;;;;;;11.67;58.23;100293.23;105034;1276;75949;-70
2022/04/23 08:02:10;;;;;;;7.80;5.70;;;;;;;11.72;57.09;100295.94;104931;1276;71400;-70
2022/04/23 08:04:38;;;;;;;7.80;5.70;;;;;;;11.73;56.15;100288.62;104928;1276;74184;-68
2022/04/23 08:07:04;;;;;;;7.20;5.30;;;;;;;11.76;56.10;100290.92;104870;1275;61279;-71
2022/04/23 08:09:37;;;;;;;7.90;5.90;;;;;;;11.77;56.33;100287.39;104920;1276;61743;-71
2022/04/23 08:12:06;;;;;;;12.80;8.90;;;;;;;11.85;55.53;100289.97;105180;1274;74934;-72
2022/04/23 08:14:33;;;;;;;11.80;6.40;;;;;;;11.86;54.86;100289.98;104958;1276;70985;-73
2022/04/23 08:16:59;;;;;;;6.80;5.40;;;;;;;11.88;55.27;100291.33;104983;1276;72960;-71
2022/04/23 08:19:28;;;;;;;10.30;6.50;;;;;;;11.93;55.85;100293.65;105227;1276;61167;-70
2022/04/23 08:21:56;;;;;;;8.70;5.70;;;;;;;12.02;56.02;100289.98;104886;1276;61342;-72
2022/04/23 08:24:22;;;;;;;6.90;5.30;;;;;;;12.13;55.12;100288.93;104804;1275;75198;-71
2022/04/23 08:26:49;;;;;;;7.60;5.70;;;;;;;12.19;54.71;100286.48;104898;1276;61239;-72
2022/04/23 08:32:02;;;;;;;8.30;5.70;;;;;;;12.31;53.43;100283.27;104985;1273;61739;-68
2022/04/23 08:34:28;;;;;;;8.40;5.40;;;;;;;12.34;53.56;100279.32;104968;1276;61129;-71
2022/04/23 08:36:57;;;;;;;6.60;4.90;;;;;;;12.44;53.53;100273.10;104899;1274;74089;-70
2022/04/23 08:39:23;;;;;;;7.70;4.70;;;;;;;12.56;53.20;100276.30;104834;1275;73554;-71
2022/04/23 08:41:50;;;;;;;7.50;5.60;;;;;;;12.70;53.19;100273.29;104989;1274;74753;-72
2022/04/23 08:44:17;;;;;;;9.00;4.90;;;;;;;12.80;52.98;100276.77;104897;1276;62137;-71
2022/04/23 08:46:45;;;;;;;5.80;5.00;;;;;;;12.89;50.83;100275.40;105056;1274;61375;-71
2022/04/23 08:49:13;;;;;;;7.90;5.20;;;;;;;12.97;49.74;100269.27;105003;1276;74624;-69
2022/04/23 08:51:43;;;;;;;6.70;5.10;;;;;;;12.98;49.29;100268.17;105008;1276;71420;-70
2022/04/23 08:54:12;;;;;;;6.40;4.80;;;;;;;13.08;49.98;100265.38;105030;1273;72961;-71
2022/04/23 08:56:39;;;;;;;;;;;;;;;13.20;48.74;100263.06;104937;1276;61359;-71
2022/04/23 08:59:07;;;;;;;;;;;;;;;13.30;48.37;100262.12;104881;1276;61962;-69
2022/04/23 09:01:35;;;;;;;8.80;4.90;;;;;;;13.36;47.79;100262.66;104936;1276;74222;-70
2022/04/23 09:04:04;;;;;;;5.20;4.30;;;;;;;13.42;48.66;100269.23;104932;1276;72591;-73
2022/04/23 09:06:45;;;;;;;7.20;4.90;;;;;;;13.48;48.01;100268.73;104924;1276;73031;-72
2022/04/23 09:09:17;;;;;;;7.50;4.70;;;;;;;13.54;47.10;100268.70;105202;1275;61958;-73
2022/04/23 09:11:49;;;;;;;4.80;4.00;;;;;;;13.58;46.83;100268.85;105116;1273;61368;-71
2022/04/23 09:14:22;;;;;;;6.60;4.80;;;;;;;13.64;46.55;100272.67;105244;1276;75406;-70
2022/04/23 09:25:11;;;;;;;4.40;3.60;;;;;;;13.90;43.91;100258.05;105037;1274;61593;-71
2022/04/23 09:27:42;;;;;;;5.60;3.40;;;;;;;14.00;46.59;100253.84;105125;1274;73647;-72
2022/04/23 09:30:12;;;;;;;;;;;;;;;14.23;45.48;100254.52;104911;1276;71539;-71
2022/04/23 09:32:58;;;;;;;;;;;;;;;14.36;43.79;100250.73;105022;1274;73022;-72
2022/04/23 09:35:25;;;;;;;;;;;;;;;14.38;42.58;100249.64;105034;1276;61385;-73
2022/04/23 09:40:37;;;;;;;4.80;2.90;;;;;;;14.37;42.37;100243.24;104667;1276;319548;-73
2022/04/23 09:43:11;;;;;;;4.60;3.10;;;;;;;14.41;42.21;100242.73;104911;1276;72459;-72
2022/04/23 09:45:43;;;;;;;6.30;4.30;;;;;;;14.46;42.16;100237.41;104956;1276;73371;-71
2022/04/23 09:48:16;;;;;;;5.00;3.70;;;;;;;14.52;41.99;100233.73;105079;1274;61570;-68
2022/04/23 09:50:44;;;;;;;6.50;3.90;;;;;;;14.57;42.18;100233.45;105231;1274;61269;-72
2022/04/23 09:53:16;;;;;;;5.20;2.90;;;;;;;14.64;41.96;100228.16;104936;1276;75422;-72
2022/04/23 09:55:45;;;;;;;4.10;3.00;;;;;;;14.63;41.25;100226.28;105193;1273;70146;-71
2022/04/23 09:58:13;;;;;;;4.80;3.60;;;;;;;14.68;41.43;100228.90;104969;1276;74050;-72
2022/04/23 10:00:41;;;;;;;5.80;4.40;;;;;;;14.75;41.68;100232.91;104840;1276;61745;-71
2022/04/23 10:03:09;;;;;;;6.30;4.10;;;;;;;14.80;41.96;100235.69;104881;1274;61678;-71
2022/04/23 10:05:49;;;;;;;5.30;3.40;;;;;;;14.89;41.24;100235.51;104972;1276;74937;-70
2022/04/23 10:08:22;;;;;;;5.80;3.70;;;;;;;14.96;40.68;100233.13;104864;1276;71264;-70
2022/04/23 10:10:52;;;;;;;4.50;3.50;;;;;;;15.04;40.71;100235.33;104873;1276;72803;-73
2022/04/23 10:13:22;;;;;;;5.20;3.70;;;;;;;15.10;40.71;100230.86;104965;1276;61362;-72
2022/04/23 10:15:51;;;;;;;4.10;3.00;;;;;;;15.12;41.16;100235.41;105052;1274;61177;-72
2022/04/23 10:18:18;;;;;;;4.50;3.30;;;;;;;15.15;40.36;100230.33;105175;1273;75823;-70
2022/04/23 10:21:02;;;;;;;4.50;3.30;;;;;;;15.18;40.48;100223.43;104860;1276;71559;-72
2022/04/23 10:24:01;;;;;;;4.40;3.00;;;;;;;15.24;40.40;100221.13;104894;1276;74140;-70
2022/04/23 10:26:50;;;;;;;6.30;4.00;;;;;;;15.27;39.91;100216.35;104958;1276;62097;-72
2022/04/23 10:29:22;;;;;;;5.30;4.00;;;;;;;15.32;40.61;100216.55;104948;1276;61338;-71
2022/04/23 10:32:12;;;;;;;4.20;3.40;;;;;;;15.35;40.63;100216.83;104840;1276;75199;-71
2022/04/23 10:34:40;;;;;;;4.70;3.30;;;;;;;15.46;40.59;100210.14;104985;1274;71795;-70
2022/04/23 10:37:29;;;;;;;4.10;3.10;;;;;;;15.53;39.97;100204.24;104918;1276;73015;-71
2022/04/23 10:39:56;;;;;;;6.80;3.90;;;;;;;15.53;39.96;100199.27;104874;1276;61402;-70
2022/04/23 10:42:24;;;;;;;5.00;3.50;;;;;;;15.58;40.11;100208.31;104891;1274;62525;-72
2022/04/23 10:44:55;;;;;;;5.50;3.50;;;;;;;15.65;40.12;100206.98;104997;1276;74992;-73
2022/04/23 10:47:29;;;;;;;;;;;;;;;15.64;39.67;100209.56;105463;1274;72406;-70
2022/04/23 10:50:13;;;;;;;4.10;2.80;;;;;;;15.66;39.74;100203.05;104966;1276;72370;-70
2022/04/23 10:52:41;;;;;;;4.80;3.10;;;;;;;15.79;40.21;100200.08;105069;1273;61296;-74
2022/04/23 10:55:09;;;;;;;3.30;2.60;;;;;;;15.92;40.15;100194.73;104815;1276;61382;-71
2022/04/23 10:57:35;;;;;;;3.40;2.30;;;;;;;16.05;39.58;100192.89;105078;1274;75068;-71
2022/04/23 11:00:23;;;;;;;4.30;3.30;;;;;;;16.12;39.28;100192.27;104914;1276;72737;-71
2022/04/23 11:03:08;;;;;;;4.70;3.20;;;;;;;16.21;39.51;100191.64;105064;1274;71689;-75
2022/04/23 11:13:59;;;;;;;4.20;3.10;;;;;;;16.50;39.38;100185.05;104912;1275;70382;-73
2022/04/23 11:16:29;;;;;;;4.20;3.40;;;;;;;16.61;38.61;100185.93;105270;1274;72820;-72
2022/04/23 11:19:00;;;;;;;5.30;3.70;;;;;;;16.63;37.94;100181.29;104918;1276;61383;-71
2022/04/23 11:21:31;;;;;;;4.90;3.30;;;;;;;16.71;38.60;100182.71;104986;1275;61328;-71
2022/04/23 11:23:59;;;;;;;4.70;3.50;;;;;;;16.76;38.67;100185.48;104870;1275;74792;-73
2022/04/23 11:26:44;;;;;;;4.70;3.70;;;;;;;16.82;38.67;100178.20;105131;1276;70991;-70
2022/04/23 11:29:13;;;;;;;5.60;3.70;;;;;;;16.96;39.11;100180.80;105067;1275;73481;-71
2022/04/23 11:31:49;;;;;;;5.90;4.20;;;;;;;17.13;38.06;100182.02;104976;1274;62590;-71
2022/04/23 11:34:15;;;;;;;5.50;4.10;;;;;;;17.24;37.96;100177.10;105011;1274;61322;-71
2022/04/23 11:36:42;;;;;;;5.10;3.60;;;;;;;17.32;37.70;100176.54;104900;1276;75698;-71
2022/04/23 11:39:10;;;;;;;5.80;3.90;;;;;;;17.37;37.43;100177.93;104915;1276;72390;-69
2022/04/23 11:41:38;;;;;;;5.30;4.10;;;;;;;17.46;37.70;100175.24;104911;1276;74036;-72
2022/04/23 11:44:15;;;;;;;4.90;3.40;;;;;;;17.56;37.47;100169.58;104826;1276;61692;-71
2022/04/23 11:46:51;;;;;;;5.40;4.10;;;;;;;17.71;37.47;100176.66;104840;1276;61188;-70
2022/04/23 11:49:30;;;;;;;5.60;3.60;;;;;;;17.92;37.59;100170.02;104931;1276;75893;-72
2022/04/23 11:52:01;;;;;;;5.00;3.60;;;;;;;18.13;37.10;100168.08;104849;1277;71837;-70
2022/04/23 11:54:41;;;;;;;6.40;3.20;;;;;;;18.24;36.46;100161.85;104872;1276;73001;-72
2022/04/23 11:57:10;;;;;;;6.20;3.40;;;;;;;18.40;36.43;100157.92;105078;1274;61741;-72
2022/04/23 11:59:42;;;;;;;4.80;3.60;;;;;;;18.62;35.33;100157.02;104965;1274;61687;-69